createdAt,value
2018-11-23T00:00:13.201Z,0.00
2018-11-23T00:01:13.191Z,0.00
2018-11-23T00:02:13.174Z,0.00
2018-11-23T00:03:13.195Z,0.00
2018-11-23T00:04:13.167Z,0.00
2018-11-23T00:05:13.149Z,0.00
2018-11-23T00:06:13.135Z,0.00
2018-11-23T00:07:13.136Z,0.00
2018-11-23T00:08:13.108Z,0.00
2018-11-23T00:09:13.116Z,0.00
2018-11-23T00:10:13.094Z,0.00
2018-11-23T00:11:13.075Z,0.00
2018-11-23T00:12:13.070Z,0.00
2018-11-23T00:13:13.056Z,0.00
2018-11-23T00:14:13.069Z,0.00
2018-11-23T00:15:13.052Z,0.00
2018-11-23T00:16:13.034Z,0.00
2018-11-23T00:17:13.010Z,0.00
2018-11-23T00:18:12.998Z,0.00
2018-11-23T00:19:12.988Z,0.00
2018-11-23T00:20:12.996Z,0.00
2018-11-23T00:21:12.972Z,0.00
2018-11-23T00:22:12.957Z,0.00
2018-11-23T00:23:12.948Z,0.00
2018-11-23T00:24:12.933Z,0.00
2018-11-23T00:25:12.935Z,0.00
2018-11-23T00:26:12.937Z,0.00
2018-11-23T00:27:12.907Z,0.00
2018-11-23T00:28:12.891Z,0.00
2018-11-23T00:29:12.887Z,0.00
2018-11-23T00:30:12.877Z,0.00
2018-11-23T00:31:12.866Z,0.00
2018-11-23T00:32:12.844Z,0.00
2018-11-23T00:33:12.841Z,0.00
2018-11-23T00:34:12.824Z,0.00
2018-11-23T00:35:12.838Z,0.00
2018-11-23T00:36:12.799Z,0.00
2018-11-23T00:37:12.799Z,0.00
2018-11-23T00:38:12.778Z,0.00
2018-11-23T00:39:12.788Z,0.00
2018-11-23T00:40:12.792Z,0.00
2018-11-23T00:41:12.751Z,0.00
2018-11-23T00:42:12.742Z,0.00
2018-11-23T00:43:12.738Z,0.00
2018-11-23T00:44:12.712Z,0.00
2018-11-23T00:45:12.712Z,0.00
2018-11-23T00:46:12.690Z,0.00
2018-11-23T00:47:12.686Z,0.00
2018-11-23T00:48:12.673Z,0.00
2018-11-23T00:49:12.681Z,0.00
2018-11-23T00:50:12.656Z,0.00
2018-11-23T00:51:12.635Z,0.00
2018-11-23T00:52:12.628Z,0.00
2018-11-23T00:53:12.612Z,0.00
2018-11-23T00:54:12.605Z,0.00
2018-11-23T00:55:12.603Z,0.00
2018-11-23T00:56:12.593Z,0.00
2018-11-23T00:57:12.571Z,0.00
2018-11-23T00:58:12.567Z,0.00
2018-11-23T00:59:12.547Z,0.00
2018-11-23T01:00:12.554Z,0.00
2018-11-23T01:01:12.525Z,0.00
2018-11-23T01:02:12.530Z,0.00
2018-11-23T01:03:12.501Z,0.00
2018-11-23T01:04:12.491Z,0.00
2018-11-23T01:05:12.491Z,0.00
2018-11-23T01:06:12.473Z,0.00
2018-11-23T01:07:12.480Z,0.00
2018-11-23T01:08:12.447Z,0.00
2018-11-23T01:09:12.437Z,0.00
2018-11-23T01:10:12.438Z,0.00
2018-11-23T01:11:12.425Z,0.00
2018-11-23T01:12:12.418Z,0.00
2018-11-23T01:13:12.395Z,0.00
2018-11-23T01:14:12.382Z,0.00
2018-11-23T01:15:12.385Z,0.00
2018-11-23T01:16:12.359Z,0.00
2018-11-23T01:17:12.349Z,0.00
2018-11-23T01:18:12.341Z,0.00
2018-11-23T01:19:12.331Z,0.00
2018-11-23T01:20:12.327Z,0.00
2018-11-23T01:21:12.318Z,0.00
2018-11-23T01:22:12.307Z,0.00
2018-11-23T01:23:12.283Z,0.00
2018-11-23T01:24:12.297Z,0.00
2018-11-23T01:25:12.289Z,0.00
2018-11-23T01:26:12.248Z,0.00
2018-11-23T01:27:12.354Z,0.00
2018-11-23T01:28:12.231Z,0.00
2018-11-23T01:29:12.216Z,0.00
2018-11-23T01:30:12.219Z,0.00
2018-11-23T01:31:12.200Z,0.00
2018-11-23T01:32:12.188Z,0.00
2018-11-23T01:33:12.191Z,0.00
2018-11-23T01:34:12.160Z,0.00
2018-11-23T01:35:12.185Z,0.00
2018-11-23T01:36:12.145Z,0.00
2018-11-23T01:37:12.129Z,0.00
2018-11-23T01:38:12.119Z,0.00
2018-11-23T01:39:12.109Z,0.00
2018-11-23T01:40:12.114Z,0.00
2018-11-23T01:41:12.090Z,0.00
2018-11-23T01:42:12.077Z,0.00
2018-11-23T01:43:12.107Z,0.00
2018-11-23T01:44:12.049Z,0.00
2018-11-23T01:45:12.056Z,0.00
2018-11-23T01:46:12.028Z,0.00
2018-11-23T01:47:12.021Z,0.00
2018-11-23T01:48:12.009Z,0.00
2018-11-23T01:49:12.084Z,0.00
2018-11-23T01:50:11.983Z,0.00
2018-11-23T01:51:11.984Z,0.00
2018-11-23T01:52:11.966Z,0.00
2018-11-23T01:53:12.011Z,0.00
2018-11-23T01:54:11.965Z,0.00
2018-11-23T01:55:11.929Z,0.00
2018-11-23T01:56:11.953Z,0.00
2018-11-23T01:57:11.906Z,0.00
2018-11-23T01:58:11.923Z,0.00
2018-11-23T01:59:11.894Z,0.00
2018-11-23T02:00:11.875Z,0.00
2018-11-23T02:01:11.872Z,0.00
2018-11-23T02:02:11.873Z,0.00
2018-11-23T02:03:11.839Z,0.00
2018-11-23T02:04:11.834Z,0.00
2018-11-23T02:05:11.821Z,0.00
2018-11-23T02:06:11.829Z,0.00
2018-11-23T02:07:11.796Z,0.00
2018-11-23T02:08:11.787Z,0.00
2018-11-23T02:09:11.782Z,0.00
2018-11-23T02:10:11.764Z,0.00
2018-11-23T02:11:11.771Z,0.00
2018-11-23T02:12:11.747Z,0.00
2018-11-23T02:13:11.730Z,0.00
2018-11-23T02:14:11.727Z,0.00
2018-11-23T02:15:11.713Z,0.00
2018-11-23T02:16:11.713Z,0.00
2018-11-23T02:17:11.695Z,0.00
2018-11-23T02:18:11.677Z,0.00
2018-11-23T02:19:11.670Z,0.00
2018-11-23T02:20:11.652Z,0.00
2018-11-23T02:21:11.681Z,0.00
2018-11-23T02:22:11.633Z,0.00
2018-11-23T02:23:11.625Z,0.00
2018-11-23T02:24:11.611Z,0.00
2018-11-23T02:25:11.597Z,0.00
2018-11-23T02:26:11.600Z,0.00
2018-11-23T02:27:11.576Z,0.00
2018-11-23T02:28:11.567Z,0.00
2018-11-23T02:29:11.558Z,0.00
2018-11-23T02:30:11.551Z,0.00
2018-11-23T02:31:11.568Z,0.00
2018-11-23T02:32:11.521Z,0.00
2018-11-23T02:33:11.509Z,0.00
2018-11-23T02:34:11.507Z,0.00
2018-11-23T02:35:11.497Z,0.00
2018-11-23T02:36:11.500Z,0.00
2018-11-23T02:37:11.476Z,0.00
2018-11-23T02:38:11.458Z,0.00
2018-11-23T02:39:11.447Z,0.00
2018-11-23T02:40:11.444Z,0.00
2018-11-23T02:41:11.432Z,0.00
2018-11-23T02:42:11.413Z,0.00
2018-11-23T02:43:11.418Z,0.00
2018-11-23T02:44:11.398Z,0.00
2018-11-23T02:45:11.384Z,0.00
2018-11-23T02:46:11.389Z,0.00
2018-11-23T02:47:11.356Z,0.00
2018-11-23T02:48:11.346Z,0.00
2018-11-23T02:49:11.334Z,0.00
2018-11-23T02:50:11.323Z,0.00
2018-11-23T02:51:11.323Z,0.00
2018-11-23T02:52:11.299Z,0.00
2018-11-23T02:53:11.292Z,0.00
2018-11-23T02:54:11.279Z,0.00
2018-11-23T02:55:11.268Z,0.00
2018-11-23T02:56:11.270Z,0.00
2018-11-23T02:57:11.257Z,0.00
2018-11-23T02:58:11.260Z,0.00
2018-11-23T02:59:11.222Z,0.00
2018-11-23T03:00:11.216Z,0.00
2018-11-23T03:01:11.491Z,0.00
2018-11-23T03:02:11.193Z,0.00
2018-11-23T03:03:11.202Z,0.00
2018-11-23T03:04:11.178Z,0.00
2018-11-23T03:05:11.157Z,0.00
2018-11-23T03:06:11.157Z,0.00
2018-11-23T03:07:11.159Z,0.00
2018-11-23T03:08:11.149Z,0.00
2018-11-23T03:09:11.116Z,0.00
2018-11-23T03:10:11.109Z,0.00
2018-11-23T03:11:11.102Z,0.00
2018-11-23T03:12:11.081Z,0.00
2018-11-23T03:13:11.071Z,0.00
2018-11-23T03:14:11.059Z,0.00
2018-11-23T03:15:11.048Z,0.00
2018-11-23T03:16:11.051Z,0.00
2018-11-23T03:17:11.045Z,0.00
2018-11-23T03:18:11.013Z,0.00
2018-11-23T03:19:11.010Z,0.00
2018-11-23T03:20:11.018Z,0.00
2018-11-23T03:21:10.991Z,0.00
2018-11-23T03:22:10.980Z,0.00
2018-11-23T03:23:10.957Z,0.00
2018-11-23T03:24:10.948Z,0.00
2018-11-23T03:25:10.942Z,0.00
2018-11-23T03:26:10.929Z,0.00
2018-11-23T03:27:10.931Z,0.00
2018-11-23T03:28:10.903Z,0.00
2018-11-23T03:29:10.892Z,0.00
2018-11-23T03:30:10.899Z,0.00
2018-11-23T03:31:12.435Z,0.00
2018-11-23T03:32:10.880Z,0.00
2018-11-23T03:33:10.850Z,0.00
2018-11-23T03:34:10.852Z,0.00
2018-11-23T03:35:10.826Z,0.00
2018-11-23T03:36:10.824Z,0.00
2018-11-23T03:37:10.816Z,0.00
2018-11-23T03:38:10.800Z,0.00
2018-11-23T03:39:10.785Z,0.00
2018-11-23T03:40:10.791Z,0.00
2018-11-23T03:41:10.759Z,0.00
2018-11-23T03:42:10.762Z,0.00
2018-11-23T03:43:10.752Z,0.00
2018-11-23T03:44:10.738Z,0.00
2018-11-23T03:45:10.720Z,0.00
2018-11-23T03:46:10.711Z,0.00
2018-11-23T03:47:10.708Z,0.00
2018-11-23T03:48:10.686Z,0.00
2018-11-23T03:49:10.686Z,0.00
2018-11-23T03:50:10.667Z,0.00
2018-11-23T03:51:10.662Z,0.00
2018-11-23T03:52:10.662Z,0.00
2018-11-23T03:53:10.637Z,0.00
2018-11-23T03:54:10.622Z,0.00
2018-11-23T03:55:10.607Z,0.00
2018-11-23T03:56:10.596Z,0.00
2018-11-23T03:57:10.594Z,0.00
2018-11-23T03:58:10.571Z,0.00
2018-11-23T03:59:10.578Z,0.00
2018-11-23T04:00:17.100Z,0.00
2018-11-23T04:01:11.560Z,0.00
2018-11-23T04:02:10.542Z,0.00
2018-11-23T04:03:10.533Z,0.00
2018-11-23T04:04:10.505Z,0.00
2018-11-23T04:05:10.496Z,0.00
2018-11-23T04:06:10.496Z,0.00
2018-11-23T04:07:10.505Z,0.00
2018-11-23T04:08:10.465Z,0.00
2018-11-23T04:09:10.452Z,0.00
2018-11-23T04:10:10.440Z,0.00
2018-11-23T04:11:10.429Z,0.00
2018-11-23T04:12:10.429Z,0.00
2018-11-23T04:13:10.408Z,0.00
2018-11-23T04:14:10.397Z,0.00
2018-11-23T04:15:10.390Z,0.00
2018-11-23T04:16:10.377Z,0.00
2018-11-23T04:17:10.378Z,0.00
2018-11-23T04:18:10.353Z,0.00
2018-11-23T04:19:10.347Z,0.00
2018-11-23T04:20:10.329Z,0.00
2018-11-23T04:21:10.339Z,0.00
2018-11-23T04:22:10.317Z,0.00
2018-11-23T04:23:10.299Z,0.00
2018-11-23T04:24:10.287Z,0.00
2018-11-23T04:25:10.284Z,0.00
2018-11-23T04:26:10.277Z,0.00
2018-11-23T04:27:10.267Z,0.00
2018-11-23T04:28:10.243Z,0.00
2018-11-23T04:29:10.241Z,0.00
2018-11-23T04:30:10.244Z,0.00
2018-11-23T04:31:10.210Z,0.00
2018-11-23T04:32:10.212Z,0.00
2018-11-23T04:33:10.187Z,0.00
2018-11-23T04:34:10.175Z,0.00
2018-11-23T04:35:10.174Z,0.00
2018-11-23T04:36:10.153Z,0.00
2018-11-23T04:37:10.155Z,0.00
2018-11-23T04:38:10.132Z,0.00
2018-11-23T04:39:10.121Z,0.00
2018-11-23T04:40:10.117Z,0.00
2018-11-23T04:41:10.110Z,0.00
2018-11-23T04:42:10.102Z,0.00
2018-11-23T04:43:10.075Z,0.00
2018-11-23T04:44:10.070Z,0.00
2018-11-23T04:45:10.054Z,0.00
2018-11-23T04:46:10.056Z,0.00
2018-11-23T04:47:10.059Z,0.00
2018-11-23T04:48:10.020Z,0.00
2018-11-23T04:49:10.021Z,0.00
2018-11-23T04:50:09.999Z,0.00
2018-11-23T04:51:09.989Z,0.00
2018-11-23T04:52:09.982Z,0.00
2018-11-23T04:53:09.975Z,0.00
2018-11-23T04:54:09.954Z,0.00
2018-11-23T04:55:09.943Z,0.00
2018-11-23T04:56:09.944Z,0.00
2018-11-23T04:57:09.925Z,0.00
2018-11-23T04:58:09.923Z,0.00
2018-11-23T04:59:09.921Z,0.00
2018-11-23T05:00:09.890Z,0.00
2018-11-23T05:01:09.904Z,0.00
2018-11-23T05:02:09.869Z,0.00
2018-11-23T05:03:09.869Z,0.00
2018-11-23T05:04:09.844Z,0.00
2018-11-23T05:05:09.842Z,0.00
2018-11-23T05:06:09.822Z,0.00
2018-11-23T05:07:09.812Z,0.00
2018-11-23T05:08:09.811Z,0.00
2018-11-23T05:09:09.789Z,0.00
2018-11-23T05:10:09.781Z,0.00
2018-11-23T05:11:09.766Z,0.00
2018-11-23T05:12:09.776Z,0.00
2018-11-23T05:13:09.760Z,0.00
2018-11-23T05:14:09.738Z,0.00
2018-11-23T05:15:09.724Z,0.00
2018-11-23T05:16:09.717Z,0.00
2018-11-23T05:17:09.704Z,0.00
2018-11-23T05:18:09.701Z,0.00
2018-11-23T05:19:09.679Z,0.00
2018-11-23T05:20:09.676Z,0.00
2018-11-23T05:21:09.669Z,0.00
2018-11-23T05:22:09.649Z,0.00
2018-11-23T05:23:09.645Z,0.00
2018-11-23T05:24:09.624Z,0.00
2018-11-23T05:25:09.618Z,0.00
2018-11-23T05:26:09.607Z,0.00
2018-11-23T05:27:09.615Z,0.00
2018-11-23T05:28:09.600Z,0.00
2018-11-23T05:29:09.575Z,0.00
2018-11-23T05:30:09.561Z,0.00
2018-11-23T05:31:09.555Z,0.00
2018-11-23T05:32:09.577Z,0.00
2018-11-23T05:33:09.549Z,0.00
2018-11-23T05:34:09.515Z,0.00
2018-11-23T05:35:09.511Z,0.00
2018-11-23T05:36:09.496Z,0.00
2018-11-23T05:37:09.490Z,0.00
2018-11-23T05:38:09.500Z,0.00
2018-11-23T05:39:09.458Z,0.00
2018-11-23T05:40:09.449Z,0.00
2018-11-23T05:41:09.437Z,0.00
2018-11-23T05:42:09.442Z,0.00
2018-11-23T05:43:09.437Z,0.00
2018-11-23T05:44:09.418Z,0.00
2018-11-23T05:45:09.416Z,0.00
2018-11-23T05:46:09.381Z,0.00
2018-11-23T05:47:09.370Z,0.00
2018-11-23T05:48:09.370Z,0.00
2018-11-23T05:49:09.399Z,0.00
2018-11-23T05:50:09.335Z,0.00
2018-11-23T05:51:09.325Z,0.00
2018-11-23T05:52:09.319Z,0.00
2018-11-23T05:53:09.326Z,0.00
2018-11-23T05:54:09.303Z,0.00
2018-11-23T05:55:09.291Z,0.00
2018-11-23T05:56:09.303Z,0.00
2018-11-23T05:57:09.262Z,0.00
2018-11-23T05:58:09.270Z,0.00
2018-11-23T05:59:09.243Z,0.00
2018-11-23T06:00:09.234Z,0.00
2018-11-23T06:01:10.087Z,0.00
2018-11-23T06:02:09.204Z,0.00
2018-11-23T06:03:09.221Z,0.00
2018-11-23T06:04:09.184Z,0.00
2018-11-23T06:05:09.174Z,0.00
2018-11-23T06:06:09.161Z,0.00
2018-11-23T06:07:09.173Z,0.00
2018-11-23T06:08:09.177Z,0.00
2018-11-23T06:09:09.133Z,0.00
2018-11-23T06:10:09.124Z,0.00
2018-11-23T06:11:09.112Z,0.00
2018-11-23T06:12:09.100Z,0.00
2018-11-23T06:13:09.103Z,0.00
2018-11-23T06:14:09.087Z,0.00
2018-11-23T06:15:09.063Z,0.00
2018-11-23T06:16:09.068Z,0.00
2018-11-23T06:17:09.043Z,0.00
2018-11-23T06:18:09.063Z,0.00
2018-11-23T06:19:09.022Z,0.00
2018-11-23T06:20:09.006Z,0.00
2018-11-23T06:21:08.994Z,0.00
2018-11-23T06:22:09.000Z,0.00
2018-11-23T06:23:09.002Z,0.00
2018-11-23T06:24:08.972Z,0.00
2018-11-23T06:25:08.981Z,0.00
2018-11-23T06:26:08.961Z,0.00
2018-11-23T06:27:08.929Z,0.00
2018-11-23T06:28:08.922Z,0.00
2018-11-23T06:29:08.924Z,0.00
2018-11-23T06:30:08.900Z,0.00
2018-11-23T06:31:08.909Z,0.00
2018-11-23T06:32:08.878Z,0.00
2018-11-23T06:33:08.869Z,0.00
2018-11-23T06:34:08.867Z,0.00
2018-11-23T06:35:08.844Z,0.00
2018-11-23T06:36:08.837Z,0.00
2018-11-23T06:37:08.820Z,0.00
2018-11-23T06:38:08.811Z,0.00
2018-11-23T06:39:08.809Z,0.00
2018-11-23T06:40:08.788Z,0.00
2018-11-23T06:41:10.567Z,0.00
2018-11-23T06:42:08.764Z,0.00
2018-11-23T06:43:08.753Z,0.00
2018-11-23T06:44:08.754Z,0.00
2018-11-23T06:45:08.739Z,0.00
2018-11-23T06:46:08.720Z,0.00
2018-11-23T06:47:08.708Z,0.00
2018-11-23T06:48:08.700Z,0.00
2018-11-23T06:49:08.707Z,0.00
2018-11-23T06:50:08.678Z,0.00
2018-11-23T06:51:08.666Z,0.00
2018-11-23T06:52:08.667Z,0.00
2018-11-23T06:53:08.648Z,0.00
2018-11-23T06:54:14.361Z,0.00
2018-11-23T06:55:09.634Z,0.00
2018-11-23T06:56:08.611Z,0.00
2018-11-23T06:57:08.626Z,0.00
2018-11-23T06:58:08.588Z,0.00
2018-11-23T06:59:08.592Z,0.00
2018-11-23T07:00:08.569Z,0.00
2018-11-23T07:01:08.556Z,0.00
2018-11-23T07:02:08.554Z,0.00
2018-11-23T07:03:08.543Z,0.00
2018-11-23T07:04:08.573Z,0.00
2018-11-23T07:05:08.513Z,0.00
2018-11-23T07:06:08.504Z,0.00
2018-11-23T07:07:08.492Z,0.00
2018-11-23T07:08:08.478Z,0.00
2018-11-23T07:09:08.480Z,0.00
2018-11-23T07:10:08.454Z,0.00
2018-11-23T07:11:08.448Z,0.00
2018-11-23T07:12:08.445Z,0.00
2018-11-23T07:13:08.430Z,0.00
2018-11-23T07:14:08.437Z,0.00
2018-11-23T07:15:08.409Z,0.00
2018-11-23T07:16:08.438Z,0.00
2018-11-23T07:17:08.430Z,0.00
2018-11-23T07:18:08.367Z,0.00
2018-11-23T07:19:08.362Z,0.00
2018-11-23T07:20:08.359Z,0.00
2018-11-23T07:21:08.352Z,0.00
2018-11-23T07:22:08.327Z,0.00
2018-11-23T07:23:08.311Z,0.00
2018-11-23T07:24:08.304Z,0.00
2018-11-23T07:25:08.314Z,0.00
2018-11-23T07:26:08.284Z,0.00
2018-11-23T07:27:08.295Z,0.00
2018-11-23T07:28:11.362Z,0.00
2018-11-23T07:29:09.256Z,0.00
2018-11-23T07:30:08.253Z,0.00
2018-11-23T07:31:08.225Z,0.00
2018-11-23T07:32:08.262Z,0.00
2018-11-23T07:33:08.204Z,0.00
2018-11-23T07:34:08.192Z,0.00
2018-11-23T07:35:08.192Z,0.00
2018-11-23T07:36:08.174Z,0.00
2018-11-23T07:37:08.163Z,0.00
2018-11-23T07:38:08.153Z,0.00
2018-11-23T07:39:08.137Z,0.00
2018-11-23T07:40:08.153Z,0.00
2018-11-23T07:41:08.121Z,0.00
2018-11-23T07:42:08.104Z,0.00
2018-11-23T07:43:08.094Z,0.00
2018-11-23T07:44:08.083Z,0.00
2018-11-23T07:45:08.089Z,0.00
2018-11-23T07:46:08.058Z,0.00
2018-11-23T07:47:08.059Z,0.00
2018-11-23T07:48:08.050Z,0.00
2018-11-23T07:49:08.029Z,0.00
2018-11-23T07:50:08.034Z,0.00
2018-11-23T07:51:08.006Z,0.00
2018-11-23T07:52:07.994Z,0.00
2018-11-23T07:53:07.990Z,0.00
2018-11-23T07:54:07.972Z,0.00
2018-11-23T07:55:07.972Z,0.00
2018-11-23T07:56:07.953Z,0.00
2018-11-23T07:57:07.943Z,0.00
2018-11-23T07:58:07.927Z,0.00
2018-11-23T07:59:07.918Z,0.00
2018-11-23T08:00:07.940Z,0.00
2018-11-23T08:01:07.901Z,0.00
2018-11-23T08:02:07.882Z,0.00
2018-11-23T08:03:07.871Z,0.00
2018-11-23T08:04:07.866Z,0.00
2018-11-23T08:05:07.860Z,0.00
2018-11-23T08:06:07.841Z,0.00
2018-11-23T08:07:07.829Z,0.00
2018-11-23T08:08:07.825Z,0.00
2018-11-23T08:09:07.808Z,0.00
2018-11-23T08:10:07.811Z,0.00
2018-11-23T08:11:07.783Z,0.00
2018-11-23T08:12:07.771Z,0.00
2018-11-23T08:13:07.778Z,0.00
2018-11-23T08:14:07.776Z,0.00
2018-11-23T08:15:07.750Z,0.00
2018-11-23T08:16:07.728Z,0.00
2018-11-23T08:17:07.742Z,0.00
2018-11-23T08:18:07.707Z,0.00
2018-11-23T08:19:07.695Z,0.00
2018-11-23T08:20:07.699Z,0.00
2018-11-23T08:21:07.677Z,0.00
2018-11-23T08:22:07.665Z,0.00
2018-11-23T08:23:07.650Z,0.00
2018-11-23T08:24:14.663Z,0.00
2018-11-23T08:25:14.654Z,0.00
2018-11-23T08:26:14.632Z,0.00
2018-11-23T08:27:07.606Z,0.00
2018-11-23T08:28:07.603Z,5.62
2018-11-23T08:29:07.585Z,5.62
2018-11-23T08:30:07.599Z,5.62
2018-11-23T08:31:07.578Z,0.00
2018-11-23T08:32:07.551Z,0.00
2018-11-23T08:33:07.540Z,0.00
2018-11-23T08:34:07.538Z,0.00
2018-11-23T08:35:07.518Z,0.00
2018-11-23T08:36:07.549Z,5.62
2018-11-23T08:37:07.505Z,5.62
2018-11-23T08:38:07.490Z,5.62
2018-11-23T08:39:07.473Z,5.62
2018-11-23T08:40:07.471Z,5.62
2018-11-23T08:41:07.465Z,5.62
2018-11-23T08:42:07.445Z,5.62
2018-11-23T08:43:07.431Z,5.62
2018-11-23T08:44:07.417Z,5.62
2018-11-23T08:45:07.413Z,5.62
2018-11-23T08:46:07.429Z,5.62
2018-11-23T08:47:07.391Z,5.62
2018-11-23T08:48:07.380Z,5.62
2018-11-23T08:49:07.378Z,5.62
2018-11-23T08:50:07.356Z,5.62
2018-11-23T08:51:07.363Z,5.62
2018-11-23T08:52:07.354Z,5.62
2018-11-23T08:53:07.321Z,5.62
2018-11-23T08:54:07.311Z,5.62
2018-11-23T08:55:07.305Z,5.62
2018-11-23T08:56:07.297Z,5.62
2018-11-23T08:57:07.277Z,5.62
2018-11-23T08:58:07.264Z,5.62
2018-11-23T08:59:07.272Z,5.62
2018-11-23T09:00:07.259Z,5.62
2018-11-23T09:01:07.265Z,5.62
2018-11-23T09:02:07.221Z,5.62
2018-11-23T09:03:07.213Z,5.62
2018-11-23T09:04:07.210Z,5.62
2018-11-23T09:05:07.188Z,5.62
2018-11-23T09:06:07.187Z,5.62
2018-11-23T09:07:07.172Z,5.62
2018-11-23T09:08:07.165Z,5.62
2018-11-23T09:09:07.164Z,5.62
2018-11-23T09:10:07.145Z,5.62
2018-11-23T09:11:07.140Z,5.62
2018-11-23T09:12:07.136Z,5.62
2018-11-23T09:13:07.111Z,5.62
2018-11-23T09:14:07.091Z,5.62
2018-11-23T09:15:07.083Z,5.62
2018-11-23T09:16:07.081Z,5.62
2018-11-23T09:17:07.058Z,5.62
2018-11-23T09:18:07.045Z,5.62
2018-11-23T09:19:07.037Z,5.62
2018-11-23T09:20:07.023Z,5.62
2018-11-23T09:21:07.034Z,5.62
2018-11-23T09:22:07.021Z,5.62
2018-11-23T09:23:07.020Z,5.62
2018-11-23T09:24:06.976Z,5.62
2018-11-23T09:25:06.969Z,5.62
2018-11-23T09:26:06.972Z,5.62
2018-11-23T09:27:06.962Z,5.62
2018-11-23T09:28:06.937Z,5.62
2018-11-23T09:29:06.933Z,5.62
2018-11-23T09:30:06.917Z,5.62
2018-11-23T09:31:06.924Z,5.62
2018-11-23T09:32:06.889Z,5.62
2018-11-23T09:33:06.884Z,5.62
2018-11-23T09:34:06.878Z,5.62
2018-11-23T09:35:06.855Z,5.62
2018-11-23T09:36:06.864Z,5.62
2018-11-23T09:37:06.839Z,5.62
2018-11-23T09:38:06.825Z,5.62
2018-11-23T09:39:06.815Z,5.62
2018-11-23T09:40:06.802Z,5.62
2018-11-23T09:41:06.791Z,5.62
2018-11-23T09:42:06.789Z,5.62
2018-11-23T09:43:06.770Z,5.62
2018-11-23T09:44:06.763Z,5.62
2018-11-23T09:45:06.758Z,5.62
2018-11-23T09:46:06.748Z,5.62
2018-11-23T09:47:10.239Z,5.62
2018-11-23T09:48:06.715Z,5.62
2018-11-23T09:49:06.701Z,5.62
2018-11-23T09:50:06.694Z,5.62
2018-11-23T09:51:06.686Z,5.62
2018-11-23T09:52:06.687Z,5.62
2018-11-23T09:53:06.665Z,5.62
2018-11-23T09:54:06.646Z,5.62
2018-11-23T09:55:06.656Z,5.62
2018-11-23T09:56:06.623Z,5.62
2018-11-23T09:57:06.627Z,5.62
2018-11-23T09:58:06.603Z,5.62
2018-11-23T09:59:06.599Z,5.62
2018-11-23T10:00:06.583Z,11.25
2018-11-23T10:02:06.794Z,16.88
2018-11-23T10:03:06.551Z,22.50
2018-11-23T10:04:06.536Z,28.12
2018-11-23T10:05:06.635Z,16.88
2018-11-23T10:06:06.518Z,11.25
2018-11-23T10:07:06.541Z,28.12
2018-11-23T10:08:06.509Z,28.12
2018-11-23T10:09:06.500Z,33.75
2018-11-23T10:10:06.522Z,78.75
2018-11-23T10:11:06.461Z,95.62
2018-11-23T10:12:06.464Z,95.62
2018-11-23T10:13:06.438Z,90.00
2018-11-23T10:14:06.430Z,84.38
2018-11-23T10:15:06.435Z,84.38
2018-11-23T10:16:06.405Z,101.25
2018-11-23T10:17:06.407Z,129.38
2018-11-23T10:18:06.403Z,123.75
2018-11-23T10:19:06.373Z,180.00
2018-11-23T10:20:06.367Z,213.75
2018-11-23T10:21:06.351Z,157.50
2018-11-23T10:22:06.350Z,129.38
2018-11-23T10:23:06.336Z,73.12
2018-11-23T10:24:06.317Z,28.12
2018-11-23T10:25:06.308Z,28.12
2018-11-23T10:26:06.301Z,28.12
2018-11-23T10:27:06.304Z,28.12
2018-11-23T10:28:06.271Z,22.50
2018-11-23T10:29:06.263Z,22.50
2018-11-23T10:30:06.275Z,28.12
2018-11-23T10:31:06.260Z,22.50
2018-11-23T10:32:06.247Z,16.88
2018-11-23T10:33:06.216Z,11.25
2018-11-23T10:34:06.213Z,11.25
2018-11-23T10:35:06.197Z,11.25
2018-11-23T10:36:06.183Z,11.25
2018-11-23T10:37:06.189Z,11.25
2018-11-23T10:38:06.169Z,11.25
2018-11-23T10:39:06.157Z,11.25
2018-11-23T10:40:06.159Z,11.25
2018-11-23T10:41:06.153Z,11.25
2018-11-23T10:42:06.167Z,11.25
2018-11-23T10:43:06.112Z,11.25
2018-11-23T10:44:06.096Z,11.25
2018-11-23T10:45:06.128Z,11.25
2018-11-23T10:46:06.072Z,11.25
2018-11-23T10:47:06.100Z,11.25
2018-11-23T10:48:06.061Z,11.25
2018-11-23T10:49:06.070Z,5.62
2018-11-23T10:50:06.028Z,5.62
2018-11-23T10:51:06.018Z,5.62
2018-11-23T10:52:06.006Z,5.62
2018-11-23T10:53:06.015Z,11.25
2018-11-23T10:54:05.998Z,11.25
2018-11-23T10:55:05.982Z,11.25
2018-11-23T10:56:05.965Z,11.25
2018-11-23T10:57:05.950Z,11.25
2018-11-23T10:58:05.956Z,11.25
2018-11-23T10:59:05.929Z,11.25
2018-11-23T11:00:05.920Z,11.25
2018-11-23T11:01:05.936Z,11.25
2018-11-23T11:02:05.900Z,11.25
2018-11-23T11:03:05.893Z,11.25
2018-11-23T11:04:05.910Z,11.25
2018-11-23T11:05:05.862Z,11.25
2018-11-23T11:06:05.855Z,11.25
2018-11-23T11:07:05.842Z,11.25
2018-11-23T11:08:05.868Z,11.25
2018-11-23T11:09:05.819Z,11.25
2018-11-23T11:10:05.806Z,11.25
2018-11-23T11:11:05.794Z,11.25
2018-11-23T11:12:05.791Z,11.25
2018-11-23T11:13:05.802Z,11.25
2018-11-23T11:14:05.763Z,11.25
2018-11-23T11:15:05.751Z,11.25
2018-11-23T11:16:05.745Z,11.25
2018-11-23T11:17:05.730Z,11.25
2018-11-23T11:18:05.734Z,11.25
2018-11-23T11:19:05.714Z,11.25
2018-11-23T11:20:05.696Z,5.62
2018-11-23T11:21:05.684Z,5.62
2018-11-23T11:22:05.675Z,5.62
2018-11-23T11:23:05.674Z,5.62
2018-11-23T11:24:05.654Z,5.62
2018-11-23T11:25:05.642Z,5.62
2018-11-23T11:26:05.661Z,5.62
2018-11-23T11:27:05.631Z,5.62
2018-11-23T11:28:05.622Z,5.62
2018-11-23T11:29:05.599Z,5.62
2018-11-23T11:30:05.585Z,5.62
2018-11-23T11:31:05.583Z,5.62
2018-11-23T11:32:05.562Z,5.62
2018-11-23T11:33:05.585Z,5.62
2018-11-23T11:34:05.540Z,5.62
2018-11-23T11:35:05.543Z,5.62
2018-11-23T11:36:05.517Z,5.62
2018-11-23T11:37:05.506Z,5.62
2018-11-23T11:38:05.515Z,5.62
2018-11-23T11:39:05.492Z,5.62
2018-11-23T11:40:05.483Z,5.62
2018-11-23T11:41:05.467Z,5.62
2018-11-23T11:42:05.451Z,5.62
2018-11-23T11:43:05.454Z,5.62
2018-11-23T11:44:05.435Z,5.62
2018-11-23T11:45:05.422Z,5.62
2018-11-23T11:46:05.412Z,5.62
2018-11-23T11:47:05.396Z,5.62
2018-11-23T11:48:05.400Z,5.62
2018-11-23T11:49:05.384Z,5.62
2018-11-23T11:50:05.378Z,5.62
2018-11-23T11:51:05.355Z,5.62
2018-11-23T11:52:05.339Z,5.62
2018-11-23T11:53:05.342Z,5.62
2018-11-23T11:54:05.336Z,5.62
2018-11-23T11:55:05.307Z,11.25
2018-11-23T11:56:05.301Z,11.25
2018-11-23T11:57:05.304Z,11.25
2018-11-23T11:58:05.292Z,11.25
2018-11-23T11:59:05.267Z,16.88
2018-11-23T12:00:05.256Z,16.88
2018-11-23T12:01:05.243Z,16.88
2018-11-23T12:02:10.140Z,16.88
2018-11-23T12:03:06.251Z,16.88
2018-11-23T12:04:05.214Z,16.88
2018-11-23T12:05:05.198Z,16.88
2018-11-23T12:06:05.196Z,16.88
2018-11-23T12:07:05.186Z,16.88
2018-11-23T12:08:05.178Z,16.88
2018-11-23T12:09:05.176Z,16.88
2018-11-23T12:10:05.141Z,16.88
2018-11-23T12:11:05.132Z,22.50
2018-11-23T12:12:05.132Z,22.50
2018-11-23T12:13:05.128Z,22.50
2018-11-23T12:14:05.110Z,22.50
2018-11-23T12:15:05.087Z,22.50
2018-11-23T12:16:05.074Z,22.50
2018-11-23T12:17:05.066Z,22.50
2018-11-23T12:18:05.085Z,22.50
2018-11-23T12:19:05.638Z,22.50
2018-11-23T12:20:05.036Z,22.50
2018-11-23T12:21:05.024Z,22.50
2018-11-23T12:22:05.011Z,22.50
2018-11-23T12:23:05.008Z,22.50
2018-11-23T12:24:05.026Z,22.50
2018-11-23T12:25:04.988Z,22.50
2018-11-23T12:26:04.966Z,22.50
2018-11-23T12:27:04.961Z,16.88
2018-11-23T12:28:04.981Z,16.88
2018-11-23T12:29:04.939Z,16.88
2018-11-23T12:30:04.952Z,16.88
2018-11-23T12:31:04.912Z,16.88
2018-11-23T12:32:04.898Z,16.88
2018-11-23T12:33:04.900Z,16.88
2018-11-23T12:34:04.877Z,16.88
2018-11-23T12:35:04.880Z,16.88
2018-11-23T12:36:04.869Z,16.88
2018-11-23T12:37:04.849Z,16.88
2018-11-23T12:38:04.833Z,16.88
2018-11-23T12:39:04.825Z,16.88
2018-11-23T12:40:04.823Z,16.88
2018-11-23T12:41:04.816Z,16.88
2018-11-23T12:42:04.792Z,16.88
2018-11-23T12:43:04.796Z,16.88
2018-11-23T12:44:04.767Z,16.88
2018-11-23T12:45:04.774Z,16.88
2018-11-23T12:46:04.785Z,22.50
2018-11-23T12:47:04.739Z,22.50
2018-11-23T12:48:04.755Z,22.50
2018-11-23T12:49:04.711Z,22.50
2018-11-23T12:50:04.712Z,22.50
2018-11-23T12:51:04.689Z,22.50
2018-11-23T12:52:04.677Z,22.50
2018-11-23T12:53:06.454Z,22.50
2018-11-23T12:54:04.695Z,22.50
2018-11-23T12:55:04.659Z,22.50
2018-11-23T12:56:04.652Z,22.50
2018-11-23T12:57:04.623Z,22.50
2018-11-23T12:58:04.613Z,22.50
2018-11-23T12:59:04.621Z,22.50
2018-11-23T13:00:04.602Z,22.50
2018-11-23T13:01:04.578Z,22.50
2018-11-23T13:02:04.569Z,22.50
2018-11-23T13:03:04.557Z,22.50
2018-11-23T13:04:04.547Z,22.50
2018-11-23T13:05:04.566Z,22.50
2018-11-23T13:06:04.526Z,22.50
2018-11-23T13:07:04.539Z,22.50
2018-11-23T13:08:04.544Z,22.50
2018-11-23T13:09:04.492Z,22.50
2018-11-23T13:10:04.518Z,22.50
2018-11-23T13:11:04.548Z,16.88
2018-11-23T13:12:04.480Z,16.88
2018-11-23T13:13:04.502Z,16.88
2018-11-23T13:14:04.443Z,11.25